sensor_id;sensor_type;location;lat;lon;timestamp;P1;durP1;ratioP1;P2;durP2;ratioP2
38611;SDS011;24368;52.156;20.788;2023-11-19T00:03:46;36.90;;;25.50;;
38611;SDS011;24368;52.156;20.788;2023-11-19T00:08:47;34.70;;;26.00;;
38611;SDS011;24368;52.156;20.788;2023-11-19T00:13:48;36.70;;;25.00;;
38611;SDS011;24368;52.156;20.788;2023-11-19T00:18:49;36.80;;;25.90;;
38611;SDS011;24368;52.156;20.788;2023-11-19T00:23:50;34.30;;;24.30;;
38611;SDS011;24368;52.156;20.788;2023-11-19T00:28:52;34.60;;;23.80;;
38611;SDS011;24368;52.156;20.788;2023-11-19T00:33:54;35.70;;;24.30;;
38611;SDS011;24368;52.156;20.788;2023-11-19T00:38:55;35.50;;;24.00;;
38611;SDS011;24368;52.156;20.788;2023-11-19T00:43:56;43.80;;;28.50;;
38611;SDS011;24368;52.156;20.788;2023-11-19T00:48:57;42.20;;;28.80;;
38611;SDS011;24368;52.156;20.788;2023-11-19T00:54:00;38.60;;;27.10;;
38611;SDS011;24368;52.156;20.788;2023-11-19T00:59:01;42.40;;;26.90;;
38611;SDS011;24368;52.156;20.788;2023-11-19T01:04:02;39.80;;;27.20;;
38611;SDS011;24368;52.156;20.788;2023-11-19T01:09:03;40.50;;;26.50;;
38611;SDS011;24368;52.156;20.788;2023-11-19T01:14:05;38.10;;;25.60;;
38611;SDS011;24368;52.156;20.788;2023-11-19T01:19:06;37.70;;;25.80;;
38611;SDS011;24368;52.156;20.788;2023-11-19T01:24:07;39.10;;;26.80;;
38611;SDS011;24368;52.156;20.788;2023-11-19T01:29:11;38.10;;;26.20;;
38611;SDS011;24368;52.156;20.788;2023-11-19T01:34:15;38.60;;;24.00;;
38611;SDS011;24368;52.156;20.788;2023-11-19T01:39:16;46.30;;;28.30;;
38611;SDS011;24368;52.156;20.788;2023-11-19T01:44:18;40.20;;;27.80;;
38611;SDS011;24368;52.156;20.788;2023-11-19T01:49:19;41.60;;;28.40;;
38611;SDS011;24368;52.156;20.788;2023-11-19T01:54:20;39.90;;;26.40;;
38611;SDS011;24368;52.156;20.788;2023-11-19T01:59:22;40.50;;;26.50;;
38611;SDS011;24368;52.156;20.788;2023-11-19T02:04:27;41.80;;;26.80;;
38611;SDS011;24368;52.156;20.788;2023-11-19T02:09:28;37.20;;;25.10;;
38611;SDS011;24368;52.156;20.788;2023-11-19T02:14:30;40.50;;;26.70;;
38611;SDS011;24368;52.156;20.788;2023-11-19T02:19:31;40.80;;;27.10;;
38611;SDS011;24368;52.156;20.788;2023-11-19T02:24:33;39.00;;;27.70;;
38611;SDS011;24368;52.156;20.788;2023-11-19T02:29:35;42.80;;;28.00;;
38611;SDS011;24368;52.156;20.788;2023-11-19T02:34:36;45.10;;;29.50;;
38611;SDS011;24368;52.156;20.788;2023-11-19T02:39:37;42.00;;;28.50;;
38611;SDS011;24368;52.156;20.788;2023-11-19T02:44:38;43.90;;;28.20;;
38611;SDS011;24368;52.156;20.788;2023-11-19T02:49:39;36.70;;;24.80;;
38611;SDS011;24368;52.156;20.788;2023-11-19T02:54:41;38.50;;;25.90;;
38611;SDS011;24368;52.156;20.788;2023-11-19T02:59:43;41.10;;;27.20;;
38611;SDS011;24368;52.156;20.788;2023-11-19T03:04:44;41.30;;;26.40;;
38611;SDS011;24368;52.156;20.788;2023-11-19T03:09:46;35.90;;;25.50;;
38611;SDS011;24368;52.156;20.788;2023-11-19T03:14:47;40.30;;;25.20;;
38611;SDS011;24368;52.156;20.788;2023-11-19T03:19:51;40.90;;;25.80;;
38611;SDS011;24368;52.156;20.788;2023-11-19T03:24:52;42.30;;;26.10;;
38611;SDS011;24368;52.156;20.788;2023-11-19T03:29:53;39.30;;;25.30;;
38611;SDS011;24368;52.156;20.788;2023-11-19T03:34:54;39.70;;;25.80;;
38611;SDS011;24368;52.156;20.788;2023-11-19T03:39:56;41.60;;;26.90;;
38611;SDS011;24368;52.156;20.788;2023-11-19T03:45:00;39.50;;;26.50;;
38611;SDS011;24368;52.156;20.788;2023-11-19T03:50:01;42.20;;;25.70;;
38611;SDS011;24368;52.156;20.788;2023-11-19T03:55:03;36.70;;;24.70;;
38611;SDS011;24368;52.156;20.788;2023-11-19T04:00:06;40.40;;;24.50;;
38611;SDS011;24368;52.156;20.788;2023-11-19T04:05:10;34.50;;;23.00;;
38611;SDS011;24368;52.156;20.788;2023-11-19T04:10:12;34.80;;;23.10;;
38611;SDS011;24368;52.156;20.788;2023-11-19T04:15:13;32.90;;;23.10;;
38611;SDS011;24368;52.156;20.788;2023-11-19T04:20:15;36.50;;;22.60;;
38611;SDS011;24368;52.156;20.788;2023-11-19T04:25:16;32.80;;;21.90;;
38611;SDS011;24368;52.156;20.788;2023-11-19T04:30:17;31.80;;;22.00;;
38611;SDS011;24368;52.156;20.788;2023-11-19T04:35:19;32.10;;;22.80;;
38611;SDS011;24368;52.156;20.788;2023-11-19T04:40:20;32.90;;;22.00;;
38611;SDS011;24368;52.156;20.788;2023-11-19T04:45:23;32.40;;;21.40;;
38611;SDS011;24368;52.156;20.788;2023-11-19T04:55:45;34.80;;;21.80;;
38611;SDS011;24368;52.156;20.788;2023-11-19T05:00:46;30.30;;;21.80;;
38611;SDS011;24368;52.156;20.788;2023-11-19T05:05:47;31.20;;;21.20;;
38611;SDS011;24368;52.156;20.788;2023-11-19T05:10:48;31.70;;;20.70;;
38611;SDS011;24368;52.156;20.788;2023-11-19T05:15:49;31.10;;;20.80;;
38611;SDS011;24368;52.156;20.788;2023-11-19T05:20:50;30.80;;;20.70;;
38611;SDS011;24368;52.156;20.788;2023-11-19T05:25:51;32.00;;;22.40;;
38611;SDS011;24368;52.156;20.788;2023-11-19T05:30:52;32.20;;;22.20;;
38611;SDS011;24368;52.156;20.788;2023-11-19T05:35:53;30.70;;;20.80;;
38611;SDS011;24368;52.156;20.788;2023-11-19T05:40:54;26.50;;;19.60;;
38611;SDS011;24368;52.156;20.788;2023-11-19T05:45:55;28.20;;;19.10;;
38611;SDS011;24368;52.156;20.788;2023-11-19T05:50:57;27.80;;;19.50;;
38611;SDS011;24368;52.156;20.788;2023-11-19T05:55:58;29.00;;;20.00;;
38611;SDS011;24368;52.156;20.788;2023-11-19T06:00:59;27.50;;;20.10;;
38611;SDS011;24368;52.156;20.788;2023-11-19T06:06:04;28.60;;;19.40;;
38611;SDS011;24368;52.156;20.788;2023-11-19T06:11:06;25.90;;;19.20;;
38611;SDS011;24368;52.156;20.788;2023-11-19T06:16:08;27.50;;;18.50;;
38611;SDS011;24368;52.156;20.788;2023-11-19T06:21:09;24.10;;;17.00;;
38611;SDS011;24368;52.156;20.788;2023-11-19T06:26:10;19.90;;;16.80;;
38611;SDS011;24368;52.156;20.788;2023-11-19T06:31:11;21.70;;;15.30;;
38611;SDS011;24368;52.156;20.788;2023-11-19T06:36:15;18.00;;;14.10;;
38611;SDS011;24368;52.156;20.788;2023-11-19T06:41:19;14.50;;;11.00;;
38611;SDS011;24368;52.156;20.788;2023-11-19T06:46:20;14.40;;;11.50;;
38611;SDS011;24368;52.156;20.788;2023-11-19T06:51:21;12.10;;;10.00;;
38611;SDS011;24368;52.156;20.788;2023-11-19T06:56:23;10.80;;;9.60;;
38611;SDS011;24368;52.156;20.788;2023-11-19T07:01:25;12.10;;;10.10;;
38611;SDS011;24368;52.156;20.788;2023-11-19T07:06:26;12.00;;;9.70;;
38611;SDS011;24368;52.156;20.788;2023-11-19T07:11:27;12.50;;;9.70;;
38611;SDS011;24368;52.156;20.788;2023-11-19T07:16:28;10.90;;;8.90;;
38611;SDS011;24368;52.156;20.788;2023-11-19T07:21:29;11.90;;;9.40;;
38611;SDS011;24368;52.156;20.788;2023-11-19T07:26:30;12.30;;;10.90;;
38611;SDS011;24368;52.156;20.788;2023-11-19T07:31:32;13.30;;;9.70;;
38611;SDS011;24368;52.156;20.788;2023-11-19T07:36:33;11.20;;;9.60;;
38611;SDS011;24368;52.156;20.788;2023-11-19T07:41:34;11.70;;;9.60;;
38611;SDS011;24368;52.156;20.788;2023-11-19T07:46:35;11.80;;;10.10;;
38611;SDS011;24368;52.156;20.788;2023-11-19T07:51:36;11.40;;;9.80;;
38611;SDS011;24368;52.156;20.788;2023-11-19T07:56:37;12.30;;;10.10;;
38611;SDS011;24368;52.156;20.788;2023-11-19T08:01:38;10.90;;;9.60;;
38611;SDS011;24368;52.156;20.788;2023-11-19T08:06:40;11.20;;;10.00;;
38611;SDS011;24368;52.156;20.788;2023-11-19T08:11:41;14.40;;;11.00;;
38611;SDS011;24368;52.156;20.788;2023-11-19T08:16:43;12.30;;;10.30;;
38611;SDS011;24368;52.156;20.788;2023-11-19T08:21:44;12.80;;;10.50;;
38611;SDS011;24368;52.156;20.788;2023-11-19T08:26:45;11.70;;;10.50;;
38611;SDS011;24368;52.156;20.788;2023-11-19T08:31:46;11.90;;;10.50;;
38611;SDS011;24368;52.156;20.788;2023-11-19T08:36:49;13.60;;;11.00;;
38611;SDS011;24368;52.156;20.788;2023-11-19T08:41:51;13.40;;;11.20;;
38611;SDS011;24368;52.156;20.788;2023-11-19T08:46:52;11.60;;;10.20;;
38611;SDS011;24368;52.156;20.788;2023-11-19T08:51:54;11.20;;;9.90;;
38611;SDS011;24368;52.156;20.788;2023-11-19T08:56:55;12.20;;;10.30;;
38611;SDS011;24368;52.156;20.788;2023-11-19T09:01:56;13.70;;;11.00;;
38611;SDS011;24368;52.156;20.788;2023-11-19T09:06:57;14.90;;;11.70;;
38611;SDS011;24368;52.156;20.788;2023-11-19T09:11:59;13.40;;;11.70;;
38611;SDS011;24368;52.156;20.788;2023-11-19T09:17:00;12.30;;;9.90;;
38611;SDS011;24368;52.156;20.788;2023-11-19T09:22:01;14.90;;;12.10;;
38611;SDS011;24368;52.156;20.788;2023-11-19T09:27:02;13.10;;;10.90;;
38611;SDS011;24368;52.156;20.788;2023-11-19T09:32:03;13.70;;;11.30;;
38611;SDS011;24368;52.156;20.788;2023-11-19T09:37:05;14.90;;;12.40;;
38611;SDS011;24368;52.156;20.788;2023-11-19T09:42:06;14.90;;;12.50;;
38611;SDS011;24368;52.156;20.788;2023-11-19T09:47:07;15.50;;;11.50;;
38611;SDS011;24368;52.156;20.788;2023-11-19T09:52:09;13.40;;;11.00;;
38611;SDS011;24368;52.156;20.788;2023-11-19T09:57:10;12.90;;;11.40;;
38611;SDS011;24368;52.156;20.788;2023-11-19T10:02:14;13.30;;;11.50;;
38611;SDS011;24368;52.156;20.788;2023-11-19T10:07:16;12.90;;;11.30;;
38611;SDS011;24368;52.156;20.788;2023-11-19T10:12:18;15.30;;;12.90;;
38611;SDS011;24368;52.156;20.788;2023-11-19T10:17:19;14.00;;;11.50;;
38611;SDS011;24368;52.156;20.788;2023-11-19T10:22:20;13.40;;;11.40;;
38611;SDS011;24368;52.156;20.788;2023-11-19T10:27:26;14.80;;;12.50;;
38611;SDS011;24368;52.156;20.788;2023-11-19T10:32:27;14.70;;;11.10;;
38611;SDS011;24368;52.156;20.788;2023-11-19T10:37:28;14.50;;;11.70;;
38611;SDS011;24368;52.156;20.788;2023-11-19T10:42:33;13.60;;;11.80;;
38611;SDS011;24368;52.156;20.788;2023-11-19T10:47:34;16.30;;;12.30;;
38611;SDS011;24368;52.156;20.788;2023-11-19T10:52:37;14.20;;;11.80;;
38611;SDS011;24368;52.156;20.788;2023-11-19T10:57:39;16.20;;;12.50;;
38611;SDS011;24368;52.156;20.788;2023-11-19T11:02:46;13.80;;;12.40;;
38611;SDS011;24368;52.156;20.788;2023-11-19T11:07:52;14.70;;;12.70;;
38611;SDS011;24368;52.156;20.788;2023-11-19T11:12:56;13.20;;;11.30;;
38611;SDS011;24368;52.156;20.788;2023-11-19T11:18:01;15.20;;;12.40;;
38611;SDS011;24368;52.156;20.788;2023-11-19T11:23:08;15.80;;;13.20;;
38611;SDS011;24368;52.156;20.788;2023-11-19T11:39:21;15.70;;;13.20;;
38611;SDS011;24368;52.156;20.788;2023-11-19T11:44:57;14.40;;;12.60;;
38611;SDS011;24368;52.156;20.788;2023-11-19T11:50:05;16.80;;;13.80;;
38611;SDS011;24368;52.156;20.788;2023-11-19T11:55:09;16.20;;;13.70;;
38611;SDS011;24368;52.156;20.788;2023-11-19T12:00:10;16.00;;;12.70;;
38611;SDS011;24368;52.156;20.788;2023-11-19T12:05:22;27.00;;;21.80;;
38611;SDS011;24368;52.156;20.788;2023-11-19T12:10:24;17.10;;;12.70;;
38611;SDS011;24368;52.156;20.788;2023-11-19T12:15:25;16.80;;;13.00;;
38611;SDS011;24368;52.156;20.788;2023-11-19T12:20:28;15.40;;;13.20;;
38611;SDS011;24368;52.156;20.788;2023-11-19T12:25:38;15.40;;;13.10;;
38611;SDS011;24368;52.156;20.788;2023-11-19T12:30:39;16.00;;;12.80;;
38611;SDS011;24368;52.156;20.788;2023-11-19T12:40:41;17.70;;;14.50;;
38611;SDS011;24368;52.156;20.788;2023-11-19T12:45:42;16.20;;;13.60;;
38611;SDS011;24368;52.156;20.788;2023-11-19T12:50:55;16.60;;;13.90;;
38611;SDS011;24368;52.156;20.788;2023-11-19T12:56:07;15.80;;;13.30;;
38611;SDS011;24368;52.156;20.788;2023-11-19T13:01:09;17.10;;;14.90;;
38611;SDS011;24368;52.156;20.788;2023-11-19T13:06:14;16.90;;;13.90;;
38611;SDS011;24368;52.156;20.788;2023-11-19T13:11:29;18.20;;;14.10;;
38611;SDS011;24368;52.156;20.788;2023-11-19T13:16:36;18.00;;;14.40;;
38611;SDS011;24368;52.156;20.788;2023-11-19T13:21:39;15.80;;;13.10;;
38611;SDS011;24368;52.156;20.788;2023-11-19T13:26:40;16.70;;;14.30;;
38611;SDS011;24368;52.156;20.788;2023-11-19T13:31:41;21.70;;;16.60;;
38611;SDS011;24368;52.156;20.788;2023-11-19T13:36:42;19.50;;;15.50;;
38611;SDS011;24368;52.156;20.788;2023-11-19T13:41:43;17.40;;;14.30;;
38611;SDS011;24368;52.156;20.788;2023-11-19T13:46:45;19.50;;;15.80;;
38611;SDS011;24368;52.156;20.788;2023-11-19T13:51:47;20.20;;;14.90;;
38611;SDS011;24368;52.156;20.788;2023-11-19T13:56:48;21.70;;;17.00;;
38611;SDS011;24368;52.156;20.788;2023-11-19T14:01:49;17.70;;;14.70;;
38611;SDS011;24368;52.156;20.788;2023-11-19T14:06:50;19.80;;;15.80;;
38611;SDS011;24368;52.156;20.788;2023-11-19T14:11:52;19.50;;;15.30;;
38611;SDS011;24368;52.156;20.788;2023-11-19T14:16:53;18.90;;;15.80;;
38611;SDS011;24368;52.156;20.788;2023-11-19T14:21:55;20.40;;;14.70;;
38611;SDS011;24368;52.156;20.788;2023-11-19T14:26:56;22.50;;;17.20;;
38611;SDS011;24368;52.156;20.788;2023-11-19T14:32:00;19.10;;;15.70;;
38611;SDS011;24368;52.156;20.788;2023-11-19T14:37:01;24.10;;;17.20;;
38611;SDS011;24368;52.156;20.788;2023-11-19T14:42:03;23.10;;;16.50;;
38611;SDS011;24368;52.156;20.788;2023-11-19T14:47:06;22.00;;;17.30;;
38611;SDS011;24368;52.156;20.788;2023-11-19T14:52:07;20.90;;;16.50;;
38611;SDS011;24368;52.156;20.788;2023-11-19T14:57:09;22.50;;;17.10;;
38611;SDS011;24368;52.156;20.788;2023-11-19T15:02:10;24.50;;;17.90;;
38611;SDS011;24368;52.156;20.788;2023-11-19T15:07:11;19.80;;;15.50;;
38611;SDS011;24368;52.156;20.788;2023-11-19T15:12:12;20.50;;;16.30;;
38611;SDS011;24368;52.156;20.788;2023-11-19T15:17:13;19.00;;;16.20;;
38611;SDS011;24368;52.156;20.788;2023-11-19T15:22:14;21.60;;;17.30;;
38611;SDS011;24368;52.156;20.788;2023-11-19T15:27:15;22.40;;;17.50;;
38611;SDS011;24368;52.156;20.788;2023-11-19T15:32:17;22.20;;;16.10;;
38611;SDS011;24368;52.156;20.788;2023-11-19T15:37:18;20.60;;;16.90;;
38611;SDS011;24368;52.156;20.788;2023-11-19T15:42:19;21.10;;;16.00;;
38611;SDS011;24368;52.156;20.788;2023-11-19T15:47:20;20.90;;;15.60;;
38611;SDS011;24368;52.156;20.788;2023-11-19T15:52:22;20.10;;;15.50;;
38611;SDS011;24368;52.156;20.788;2023-11-19T15:57:23;21.30;;;15.80;;
38611;SDS011;24368;52.156;20.788;2023-11-19T16:02:24;18.20;;;15.20;;
38611;SDS011;24368;52.156;20.788;2023-11-19T16:07:25;20.40;;;16.50;;
38611;SDS011;24368;52.156;20.788;2023-11-19T16:12:27;20.90;;;15.50;;
38611;SDS011;24368;52.156;20.788;2023-11-19T16:17:28;17.80;;;15.20;;
38611;SDS011;24368;52.156;20.788;2023-11-19T16:22:30;21.30;;;14.80;;
38611;SDS011;24368;52.156;20.788;2023-11-19T16:27:31;17.50;;;15.50;;
38611;SDS011;24368;52.156;20.788;2023-11-19T16:32:32;16.10;;;13.40;;
38611;SDS011;24368;52.156;20.788;2023-11-19T16:37:35;18.40;;;14.70;;
38611;SDS011;24368;52.156;20.788;2023-11-19T16:42:36;18.80;;;14.80;;
38611;SDS011;24368;52.156;20.788;2023-11-19T16:47:38;17.30;;;14.10;;
38611;SDS011;24368;52.156;20.788;2023-11-19T16:52:40;15.90;;;14.00;;
38611;SDS011;24368;52.156;20.788;2023-11-19T16:57:41;16.40;;;13.40;;
38611;SDS011;24368;52.156;20.788;2023-11-19T17:02:44;14.80;;;12.60;;
38611;SDS011;24368;52.156;20.788;2023-11-19T17:07:45;16.50;;;13.60;;
38611;SDS011;24368;52.156;20.788;2023-11-19T17:12:46;16.70;;;13.70;;
38611;SDS011;24368;52.156;20.788;2023-11-19T17:17:49;17.20;;;13.70;;
38611;SDS011;24368;52.156;20.788;2023-11-19T17:22:50;13.90;;;11.90;;
38611;SDS011;24368;52.156;20.788;2023-11-19T17:27:51;14.00;;;12.30;;
38611;SDS011;24368;52.156;20.788;2023-11-19T17:32:52;14.70;;;12.40;;
38611;SDS011;24368;52.156;20.788;2023-11-19T17:37:53;15.80;;;12.10;;
38611;SDS011;24368;52.156;20.788;2023-11-19T17:42:54;17.50;;;15.00;;
38611;SDS011;24368;52.156;20.788;2023-11-19T17:47:55;15.20;;;12.60;;
38611;SDS011;24368;52.156;20.788;2023-11-19T17:52:56;16.60;;;13.80;;
38611;SDS011;24368;52.156;20.788;2023-11-19T17:57:57;16.10;;;13.20;;
38611;SDS011;24368;52.156;20.788;2023-11-19T18:02:59;14.00;;;11.30;;
38611;SDS011;24368;52.156;20.788;2023-11-19T18:08:00;13.90;;;12.40;;
38611;SDS011;24368;52.156;20.788;2023-11-19T18:13:02;15.10;;;12.70;;
38611;SDS011;24368;52.156;20.788;2023-11-19T18:18:04;13.90;;;12.20;;
38611;SDS011;24368;52.156;20.788;2023-11-19T18:23:05;14.20;;;12.00;;
38611;SDS011;24368;52.156;20.788;2023-11-19T18:28:06;15.00;;;12.40;;
38611;SDS011;24368;52.156;20.788;2023-11-19T18:33:07;13.70;;;12.00;;
38611;SDS011;24368;52.156;20.788;2023-11-19T18:38:09;15.10;;;12.70;;
38611;SDS011;24368;52.156;20.788;2023-11-19T18:43:10;14.00;;;11.90;;
38611;SDS011;24368;52.156;20.788;2023-11-19T18:48:11;12.40;;;11.10;;
38611;SDS011;24368;52.156;20.788;2023-11-19T18:53:13;13.20;;;11.20;;
38611;SDS011;24368;52.156;20.788;2023-11-19T18:58:14;14.80;;;11.40;;
38611;SDS011;24368;52.156;20.788;2023-11-19T19:03:16;24.40;;;19.10;;
38611;SDS011;24368;52.156;20.788;2023-11-19T19:13:23;14.00;;;11.30;;
38611;SDS011;24368;52.156;20.788;2023-11-19T19:18:24;13.30;;;11.20;;
38611;SDS011;24368;52.156;20.788;2023-11-19T19:23:25;11.70;;;10.50;;
38611;SDS011;24368;52.156;20.788;2023-11-19T19:28:26;14.50;;;11.50;;
38611;SDS011;24368;52.156;20.788;2023-11-19T19:33:27;12.50;;;11.20;;
38611;SDS011;24368;52.156;20.788;2023-11-19T19:38:28;15.00;;;12.00;;
38611;SDS011;24368;52.156;20.788;2023-11-19T19:43:29;15.00;;;11.60;;
38611;SDS011;24368;52.156;20.788;2023-11-19T19:48:31;12.20;;;11.00;;
38611;SDS011;24368;52.156;20.788;2023-11-19T19:53:33;10.70;;;9.60;;
38611;SDS011;24368;52.156;20.788;2023-11-19T19:58:34;13.90;;;10.60;;
38611;SDS011;24368;52.156;20.788;2023-11-19T20:03:36;13.90;;;11.70;;
38611;SDS011;24368;52.156;20.788;2023-11-19T20:08:37;14.80;;;10.50;;
38611;SDS011;24368;52.156;20.788;2023-11-19T20:13:39;13.30;;;11.40;;
38611;SDS011;24368;52.156;20.788;2023-11-19T20:18:40;18.30;;;15.60;;
38611;SDS011;24368;52.156;20.788;2023-11-19T20:23:41;14.00;;;11.50;;
38611;SDS011;24368;52.156;20.788;2023-11-19T20:28:42;12.70;;;10.60;;
38611;SDS011;24368;52.156;20.788;2023-11-19T20:33:45;11.50;;;10.20;;
38611;SDS011;24368;52.156;20.788;2023-11-19T20:38:46;11.00;;;9.60;;
38611;SDS011;24368;52.156;20.788;2023-11-19T20:43:47;12.20;;;10.30;;
38611;SDS011;24368;52.156;20.788;2023-11-19T20:48:48;11.40;;;9.30;;
38611;SDS011;24368;52.156;20.788;2023-11-19T20:53:49;10.10;;;9.10;;
38611;SDS011;24368;52.156;20.788;2023-11-19T20:58:51;9.80;;;8.80;;
38611;SDS011;24368;52.156;20.788;2023-11-19T21:03:54;10.40;;;8.90;;
38611;SDS011;24368;52.156;20.788;2023-11-19T21:08:56;11.90;;;9.20;;
38611;SDS011;24368;52.156;20.788;2023-11-19T21:13:57;10.10;;;9.10;;
38611;SDS011;24368;52.156;20.788;2023-11-19T21:18:58;9.70;;;8.10;;
38611;SDS011;24368;52.156;20.788;2023-11-19T21:23:59;10.40;;;8.90;;
38611;SDS011;24368;52.156;20.788;2023-11-19T21:29:00;9.60;;;8.60;;
38611;SDS011;24368;52.156;20.788;2023-11-19T21:34:02;8.20;;;7.30;;
38611;SDS011;24368;52.156;20.788;2023-11-19T21:39:03;17.10;;;15.30;;
38611;SDS011;24368;52.156;20.788;2023-11-19T21:44:06;9.20;;;8.30;;
38611;SDS011;24368;52.156;20.788;2023-11-19T21:49:08;9.30;;;8.30;;
38611;SDS011;24368;52.156;20.788;2023-11-19T21:54:09;9.70;;;8.70;;
38611;SDS011;24368;52.156;20.788;2023-11-19T21:59:10;9.80;;;8.40;;
38611;SDS011;24368;52.156;20.788;2023-11-19T22:04:12;9.00;;;8.10;;
38611;SDS011;24368;52.156;20.788;2023-11-19T22:09:14;10.50;;;8.10;;
38611;SDS011;24368;52.156;20.788;2023-11-19T22:14:16;8.40;;;7.40;;
38611;SDS011;24368;52.156;20.788;2023-11-19T22:19:17;37.40;;;30.30;;
38611;SDS011;24368;52.156;20.788;2023-11-19T22:24:18;8.70;;;7.70;;
38611;SDS011;24368;52.156;20.788;2023-11-19T22:29:19;7.90;;;7.10;;
38611;SDS011;24368;52.156;20.788;2023-11-19T22:34:21;8.90;;;7.50;;
38611;SDS011;24368;52.156;20.788;2023-11-19T22:39:22;23.00;;;17.60;;
38611;SDS011;24368;52.156;20.788;2023-11-19T22:44:23;8.20;;;7.30;;
38611;SDS011;24368;52.156;20.788;2023-11-19T22:49:24;7.70;;;6.90;;
38611;SDS011;24368;52.156;20.788;2023-11-19T22:54:25;8.00;;;6.90;;
38611;SDS011;24368;52.156;20.788;2023-11-19T22:59:26;10.70;;;9.50;;
38611;SDS011;24368;52.156;20.788;2023-11-19T23:04:27;6.80;;;6.10;;
38611;SDS011;24368;52.156;20.788;2023-11-19T23:09:28;7.20;;;6.50;;
38611;SDS011;24368;52.156;20.788;2023-11-19T23:14:30;7.50;;;6.30;;
38611;SDS011;24368;52.156;20.788;2023-11-19T23:19:33;6.50;;;5.80;;
38611;SDS011;24368;52.156;20.788;2023-11-19T23:24:36;8.10;;;7.20;;
38611;SDS011;24368;52.156;20.788;2023-11-19T23:29:37;7.40;;;6.60;;
38611;SDS011;24368;52.156;20.788;2023-11-19T23:34:38;8.00;;;6.60;;
38611;SDS011;24368;52.156;20.788;2023-11-19T23:39:39;6.90;;;5.80;;
38611;SDS011;24368;52.156;20.788;2023-11-19T23:44:40;7.10;;;6.40;;
38611;SDS011;24368;52.156;20.788;2023-11-19T23:49:41;7.70;;;6.90;;
38611;SDS011;24368;52.156;20.788;2023-11-19T23:54:43;7.80;;;6.50;;
38611;SDS011;24368;52.156;20.788;2023-11-19T23:59:44;10.70;;;8.60;;
